Time;durP1;ratioP1;P1;durP2;ratioP2;P2;SDS_P1;SDS_P2;PMS_P1;PMS_P2;Temp;Humidity;BMP_temperature;BMP_pressure;BME280_temperature;BME280_humidity;BME280_pressure;Samples;Min_cycle;Max_cycle;Signal;HPM_P1;HPM_P2
2021/08/11 00:00:44;;;;;;;15.60;7.72;;;25.10;57.00;;;;;;6111943;28;81373;-67
2021/08/11 00:03:44;;;;;;;12.45;6.50;;;25.10;57.10;;;;;;6112311;28;81177;-67
2021/08/11 00:06:45;;;;;;;10.20;6.03;;;25.20;57.00;;;;;;6110493;28;80230;-67
2021/08/11 00:09:45;;;;;;;13.88;6.47;;;25.20;56.80;;;;;;6111210;28;80703;-68
2021/08/11 00:12:46;;;;;;;14.88;6.80;;;25.30;57.00;;;;;;6112020;28;80400;-67
2021/08/11 00:15:47;;;;;;;10.48;6.70;;;25.30;56.70;;;;;;6112146;28;80655;-67
2021/08/11 00:18:47;;;;;;;14.07;6.38;;;25.30;56.60;;;;;;6111030;28;82337;-67
2021/08/11 00:21:48;;;;;;;9.90;5.88;;;25.40;56.90;;;;;;6094195;28;81690;-67
2021/08/11 00:24:48;;;;;;;10.48;6.25;;;25.40;57.10;;;;;;6109209;28;80690;-68
2021/08/11 00:27:48;;;;;;;11.38;6.00;;;25.50;57.50;;;;;;6094020;28;82192;-67
2021/08/11 00:30:52;;;;;;;9.13;6.13;;;25.50;57.60;;;;;;6111990;28;80769;-67
2021/08/11 00:33:52;;;;;;;11.88;6.15;;;25.50;57.60;;;;;;6111627;28;81103;-67
2021/08/11 00:36:53;;;;;;;10.90;6.25;;;25.50;57.00;;;;;;6104120;28;82986;-67
2021/08/11 00:39:58;;;;;;;14.13;6.53;;;25.40;57.20;;;;;;6093661;28;83542;-69
2021/08/11 00:42:59;;;;;;;12.50;5.87;;;25.40;58.20;;;;;;6105178;28;83585;-68
2021/08/11 00:45:59;;;;;;;8.43;6.18;;;25.40;57.80;;;;;;6094611;28;81689;-69
2021/08/11 00:49:00;;;;;;;10.75;5.65;;;25.40;57.80;;;;;;6094845;28;83071;-69
2021/08/11 00:52:02;;;;;;;10.18;5.97;;;25.40;57.90;;;;;;6091850;28;83281;-69
2021/08/11 00:55:03;;;;;;;11.82;5.65;;;25.50;58.40;;;;;;6094602;28;81507;-70
2021/08/11 00:58:05;;;;;;;11.80;5.97;;;25.50;57.80;;;;;;6092481;28;83539;-68
2021/08/11 01:01:08;;;;;;;14.80;5.82;;;25.50;58.00;;;;;;6090806;28;82958;-69
2021/08/11 01:04:09;;;;;;;10.77;6.78;;;25.50;58.10;;;;;;6091711;28;82459;-70
2021/08/11 01:07:10;;;;;;;13.30;5.97;;;25.50;58.20;;;;;;6111058;28;80908;-70
2021/08/11 01:10:12;;;;;;;10.00;6.80;;;25.50;58.00;;;;;;6092169;28;81801;-70
2021/08/11 01:13:15;;;;;;;11.30;6.65;;;25.50;58.10;;;;;;6092075;28;82788;-69
2021/08/11 01:16:16;;;;;;;11.18;6.70;;;25.40;58.10;;;;;;6092308;28;83773;-70
2021/08/11 01:19:20;;;;;;;11.15;6.82;;;25.50;58.10;;;;;;6093180;28;83105;-68
2021/08/11 01:22:21;;;;;;;11.70;6.85;;;25.50;58.30;;;;;;6093116;28;83319;-69
2021/08/11 01:25:23;;;;;;;19.17;7.15;;;25.50;58.10;;;;;;6091095;28;82061;-69
2021/08/11 01:28:23;;;;;;;13.02;7.63;;;25.50;58.40;;;;;;6093028;28;84861;-67
2021/08/11 01:31:24;;;;;;;18.27;7.50;;;25.50;58.50;;;;;;6093278;28;82760;-67
2021/08/11 01:34:25;;;;;;;11.82;7.22;;;25.50;58.40;;;;;;6092640;28;81544;-68
2021/08/11 01:37:26;;;;;;;12.60;7.18;;;25.50;58.30;;;;;;6094505;28;83173;-68
2021/08/11 01:40:27;;;;;;;10.13;7.15;;;25.50;58.10;;;;;;6093789;28;83153;-68
2021/08/11 01:43:29;;;;;;;10.50;7.32;;;25.40;58.00;;;;;;6091271;28;83633;-67
2021/08/11 01:46:30;;;;;;;12.60;6.93;;;25.40;57.90;;;;;;6092224;28;82902;-67
2021/08/11 01:49:31;;;;;;;14.65;6.95;;;25.40;58.10;;;;;;6092675;28;83021;-67
2021/08/11 01:52:39;;;;;;;12.60;7.88;;;25.30;58.00;;;;;;6091894;28;82889;-66
2021/08/11 01:55:40;;;;;;;11.70;7.75;;;25.30;58.30;;;;;;6090262;28;82335;-66
2021/08/11 01:58:41;;;;;;;11.25;7.28;;;25.30;58.50;;;;;;6092449;28;82745;-66
2021/08/11 02:01:44;;;;;;;12.85;7.72;;;25.30;58.40;;;;;;6090258;28;83201;-66
2021/08/11 02:04:46;;;;;;;13.45;7.20;;;25.30;58.50;;;;;;6091658;28;83485;-67
2021/08/11 02:07:46;;;;;;;17.73;7.82;;;25.30;58.30;;;;;;6089938;28;81449;-66
2021/08/11 02:10:48;;;;;;;12.18;7.50;;;25.30;58.50;;;;;;6091184;28;83506;-66
2021/08/11 02:13:49;;;;;;;12.40;7.88;;;25.30;58.40;;;;;;6107766;28;80561;-66
2021/08/11 02:16:50;;;;;;;17.17;8.52;;;25.20;58.50;;;;;;6097069;28;81437;-66
2021/08/11 02:19:51;;;;;;;15.20;7.45;;;25.20;58.60;;;;;;6090012;28;83263;-67
2021/08/11 02:22:51;;;;;;;11.38;7.20;;;25.20;58.70;;;;;;6091323;28;81670;-67
2021/08/11 02:25:52;;;;;;;13.00;6.90;;;25.20;58.70;;;;;;6092636;28;81784;-66
2021/08/11 02:28:52;;;;;;;14.38;7.35;;;25.10;58.50;;;;;;6086232;28;81526;-68
2021/08/11 02:31:53;;;;;;;10.85;7.15;;;25.00;58.70;;;;;;6092238;28;82160;-67
2021/08/11 02:34:54;;;;;;;17.70;7.50;;;25.10;59.00;;;;;;6094681;28;82335;-68
2021/08/11 02:37:54;;;;;;;13.32;7.63;;;25.10;59.00;;;;;;6095314;28;83421;-68
2021/08/11 02:40:55;;;;;;;12.40;7.38;;;25.10;59.00;;;;;;6097672;28;82578;-67
2021/08/11 02:43:55;;;;;;;11.68;6.97;;;25.10;59.10;;;;;;6091964;28;82196;-67
2021/08/11 02:46:58;;;;;;;11.93;7.47;;;25.00;59.10;;;;;;6090245;28;83019;-67
2021/08/11 02:49:59;;;;;;;12.98;8.02;;;25.00;59.10;;;;;;6080059;28;81446;-67
2021/08/11 02:52:59;;;;;;;11.82;7.80;;;25.00;59.20;;;;;;6097606;28;80644;-68
2021/08/11 02:56:00;;;;;;;13.23;8.70;;;25.10;59.30;;;;;;6091555;28;83357;-67
2021/08/11 02:59:01;;;;;;;14.30;7.35;;;25.10;59.30;;;;;;6099609;28;82860;-68
2021/08/11 03:02:01;;;;;;;12.98;7.65;;;25.10;59.20;;;;;;6115196;28;80053;-67
2021/08/11 03:05:02;;;;;;;10.57;6.90;;;25.10;59.30;;;;;;6095290;28;82610;-67
2021/08/11 03:08:03;;;;;;;10.93;6.32;;;25.10;59.20;;;;;;6094883;28;82421;-67
2021/08/11 03:11:04;;;;;;;11.82;6.90;;;25.10;59.20;;;;;;6108009;28;80706;-68
2021/08/11 03:14:04;;;;;;;16.30;7.95;;;25.10;59.00;;;;;;6114693;28;80548;-68
2021/08/11 03:17:06;;;;;;;11.52;7.45;;;25.20;59.10;;;;;;6097406;28;81230;-68
2021/08/11 03:20:06;;;;;;;12.23;7.60;;;25.20;59.00;;;;;;6093651;28;82746;-67
2021/08/11 03:23:07;;;;;;;12.55;7.40;;;25.20;59.00;;;;;;6113195;28;81807;-68
2021/08/11 03:26:10;;;;;;;13.02;7.82;;;25.20;59.00;;;;;;6095610;28;82612;-65
2021/08/11 03:29:12;;;;;;;11.65;6.97;;;25.20;59.00;;;;;;6093473;28;83205;-67
2021/08/11 03:32:17;;;;;;;11.65;7.22;;;25.20;59.20;;;;;;6093639;28;82400;-67
2021/08/11 03:35:18;;;;;;;13.10;7.25;;;25.20;59.10;;;;;;6094938;28;83412;-68
2021/08/11 03:38:19;;;;;;;17.67;7.95;;;25.10;59.00;;;;;;6112930;28;81497;-68
2021/08/11 03:41:20;;;;;;;10.85;6.63;;;25.10;59.20;;;;;;6093873;28;83268;-69
2021/08/11 03:44:21;;;;;;;11.52;7.40;;;25.10;59.20;;;;;;6112516;28;80262;-69
2021/08/11 03:47:24;;;;;;;12.25;7.07;;;25.10;59.40;;;;;;6092126;28;82454;-68
2021/08/11 03:50:26;;;;;;;13.70;7.70;;;25.10;59.70;;;;;;6091471;28;83075;-68
2021/08/11 03:53:27;;;;;;;10.00;6.20;;;25.10;59.70;;;;;;6092972;28;83644;-69
2021/08/11 03:56:28;;;;;;;15.05;7.07;;;25.10;59.70;;;;;;6093488;28;83172;-69
2021/08/11 03:59:28;;;;;;;14.50;6.65;;;25.10;59.80;;;;;;6093239;28;83045;-68
2021/08/11 04:02:29;;;;;;;11.30;6.93;;;25.10;59.90;;;;;;6087894;28;82178;-69
2021/08/11 04:05:30;;;;;;;12.00;6.72;;;25.10;59.80;;;;;;6112540;28;80553;-68
2021/08/11 04:08:30;;;;;;;13.98;7.15;;;25.10;59.90;;;;;;6107929;28;81064;-68
2021/08/11 04:11:30;;;;;;;14.30;7.78;;;25.10;59.80;;;;;;6108599;28;80625;-68
2021/08/11 04:14:31;;;;;;;16.20;8.07;;;25.10;59.70;;;;;;6111155;28;80369;-68
2021/08/11 04:17:31;;;;;;;13.77;7.30;;;25.10;59.70;;;;;;6112804;28;81368;-68
2021/08/11 04:20:32;;;;;;;16.35;8.93;;;25.10;59.60;;;;;;6108323;28;80537;-68
2021/08/11 04:23:32;;;;;;;13.85;7.70;;;25.10;59.70;;;;;;6113745;28;80797;-68
2021/08/11 04:26:33;;;;;;;17.13;8.35;;;25.10;59.70;;;;;;6112824;28;80549;-68
2021/08/11 04:29:33;;;;;;;11.30;7.53;;;25.10;59.80;;;;;;6112288;28;80421;-68
2021/08/11 04:32:34;;;;;;;16.83;8.07;;;25.10;59.80;;;;;;6109643;28;80516;-67
2021/08/11 04:35:34;;;;;;;12.73;8.45;;;25.00;59.70;;;;;;6111537;28;81416;-67
2021/08/11 04:38:35;;;;;;;16.58;8.23;;;25.00;59.90;;;;;;6112602;28;82188;-65
2021/08/11 04:41:35;;;;;;;16.48;8.18;;;24.90;60.10;;;;;;6113110;28;81096;-65
2021/08/11 04:44:35;;;;;;;11.45;8.05;;;24.80;60.30;;;;;;6107540;28;80813;-66
2021/08/11 04:47:36;;;;;;;14.02;8.10;;;24.90;60.40;;;;;;6118904;28;80411;-66
2021/08/11 04:50:36;;;;;;;12.82;7.25;;;24.90;60.40;;;;;;6108506;28;80983;-66
2021/08/11 04:53:37;;;;;;;13.32;8.13;;;25.00;60.20;;;;;;6101052;28;80784;-65
2021/08/11 04:56:37;;;;;;;12.32;7.68;;;25.00;60.30;;;;;;6109376;28;80254;-64
2021/08/11 04:59:38;;;;;;;13.00;7.90;;;25.10;60.40;;;;;;6112322;28;80621;-63
2021/08/11 05:02:38;;;;;;;14.43;8.40;;;25.10;60.70;;;;;;6109736;28;80713;-64
2021/08/11 05:05:39;;;;;;;13.52;8.15;;;25.10;60.70;;;;;;6117295;28;80622;-65
2021/08/11 05:08:39;;;;;;;14.02;7.53;;;25.20;60.60;;;;;;6111510;28;80363;-65
2021/08/11 05:11:41;;;;;;;13.05;7.72;;;25.10;60.90;;;;;;6112799;28;86051;-65
2021/08/11 05:14:41;;;;;;;16.23;7.57;;;25.20;60.70;;;;;;6110689;28;80424;-65
2021/08/11 05:17:42;;;;;;;13.20;7.20;;;25.20;60.60;;;;;;6106758;28;80865;-65
2021/08/11 05:20:42;;;;;;;14.88;7.25;;;25.30;60.60;;;;;;6110867;28;80303;-64
2021/08/11 05:23:43;;;;;;;15.85;8.40;;;25.30;60.30;;;;;;6107959;28;81164;-64
2021/08/11 05:26:45;;;;;;;12.70;7.85;;;25.30;60.40;;;;;;6107803;28;80429;-66
2021/08/11 05:29:45;;;;;;;14.00;7.80;;;25.30;60.20;;;;;;6097259;28;80292;-65
2021/08/11 05:32:46;;;;;;;13.07;7.60;;;25.30;60.10;;;;;;6113563;28;79980;-65
2021/08/11 05:35:46;;;;;;;15.90;8.05;;;25.30;60.30;;;;;;6108257;28;82514;-65
2021/08/11 05:38:47;;;;;;;12.00;7.32;;;25.40;60.10;;;;;;6112586;28;80803;-65
2021/08/11 05:41:47;;;;;;;16.92;8.93;;;25.40;60.10;;;;;;6094404;28;80331;-64
2021/08/11 05:44:50;;;;;;;18.83;8.07;;;25.40;60.10;;;;;;6108525;28;80340;-65
2021/08/11 05:47:50;;;;;;;22.40;8.32;;;25.40;60.30;;;;;;6116416;28;80458;-64
2021/08/11 05:50:51;;;;;;;16.98;7.70;;;25.50;60.00;;;;;;6111944;28;81759;-65
2021/08/11 05:53:51;;;;;;;15.30;8.27;;;25.40;60.20;;;;;;6110403;28;80331;-65
2021/08/11 05:56:52;;;;;;;12.95;7.70;;;25.40;60.10;;;;;;6111391;28;80748;-63
2021/08/11 05:59:52;;;;;;;13.82;8.07;;;25.40;60.10;;;;;;6120821;28;80914;-64
2021/08/11 06:02:52;;;;;;;12.07;7.00;;;25.40;59.90;;;;;;6108754;28;80640;-64
2021/08/11 06:06:05;;;;;;;16.08;8.13;;;25.40;60.20;;;;;;6110267;28;82916;-63
2021/08/11 06:09:05;;;;;;;14.82;8.15;;;25.40;60.10;;;;;;6104745;28;80370;-63
2021/08/11 06:12:05;;;;;;;19.83;8.40;;;25.40;60.00;;;;;;6113844;28;81199;-66
2021/08/11 06:15:06;;;;;;;14.95;7.18;;;25.40;60.10;;;;;;6100034;28;80186;-66
2021/08/11 06:18:06;;;;;;;15.60;7.85;;;25.40;59.90;;;;;;6116005;28;81255;-65
2021/08/11 06:21:07;;;;;;;11.55;7.72;;;25.40;59.80;;;;;;6111087;28;81815;-67
2021/08/11 06:24:08;;;;;;;12.88;7.63;;;25.50;60.00;;;;;;6085879;28;80734;-66
2021/08/11 06:27:08;;;;;;;13.02;8.05;;;25.50;59.90;;;;;;6100432;28;82019;-66
2021/08/11 06:30:09;;;;;;;14.30;8.75;;;25.40;60.00;;;;;;6116822;28;80540;-66
2021/08/11 06:33:09;;;;;;;15.85;7.45;;;25.50;59.70;;;;;;6112697;28;80464;-67
2021/08/11 06:36:10;;;;;;;13.07;7.60;;;25.50;59.90;;;;;;6119726;28;80364;-67
2021/08/11 06:39:10;;;;;;;25.67;9.00;;;25.50;59.60;;;;;;6112273;28;80857;-67
2021/08/11 06:42:11;;;;;;;17.92;9.10;;;25.50;59.50;;;;;;6112602;28;80213;-66
2021/08/11 06:45:21;;;;;;;18.80;8.90;;;25.40;59.40;;;;;;6092109;28;83472;-67
2021/08/11 06:48:23;;;;;;;13.93;8.05;;;25.50;59.60;;;;;;6092727;28;83677;-65
2021/08/11 06:51:23;;;;;;;14.93;7.28;;;25.40;58.90;;;;;;6100244;28;81357;-65
2021/08/11 06:54:24;;;;;;;17.40;8.35;;;25.50;58.90;;;;;;6107411;28;83508;-65
2021/08/11 06:57:25;;;;;;;14.75;7.95;;;25.40;58.80;;;;;;6116384;28;81830;-65
2021/08/11 07:00:25;;;;;;;16.92;7.97;;;25.50;58.70;;;;;;6112328;28;80515;-65
2021/08/11 07:03:26;;;;;;;15.75;7.53;;;25.50;58.70;;;;;;6111925;28;80423;-67
2021/08/11 07:06:26;;;;;;;14.02;7.05;;;25.50;58.60;;;;;;6111058;28;80415;-67
2021/08/11 07:09:27;;;;;;;14.88;6.97;;;25.50;58.40;;;;;;6111468;28;80975;-66
2021/08/11 07:12:27;;;;;;;18.40;7.68;;;25.50;58.40;;;;;;6108265;28;81332;-66
2021/08/11 07:15:27;;;;;;;13.98;6.85;;;25.50;58.00;;;;;;6091211;28;81881;-67
2021/08/11 07:18:28;;;;;;;10.77;7.03;;;25.60;57.80;;;;;;6109116;28;80227;-66
2021/08/11 07:21:29;;;;;;;14.70;6.90;;;25.50;58.00;;;;;;6112824;28;80277;-66
2021/08/11 07:24:29;;;;;;;11.23;6.93;;;25.60;57.70;;;;;;6109024;28;81763;-65
2021/08/11 07:27:29;;;;;;;12.25;5.82;;;25.60;57.80;;;;;;6111445;28;80383;-66
2021/08/11 07:30:30;;;;;;;16.42;6.47;;;25.60;58.10;;;;;;6111113;28;83014;-66
2021/08/11 07:33:30;;;;;;;14.70;5.90;;;25.60;57.60;;;;;;6111861;28;80461;-65
2021/08/11 07:36:31;;;;;;;8.02;5.25;;;25.60;56.70;;;;;;6116951;28;80488;-66
2021/08/11 07:39:31;;;;;;;8.60;5.18;;;25.60;56.80;;;;;;6093376;28;81679;-66
2021/08/11 07:42:33;;;;;;;10.57;4.88;;;25.60;55.90;;;;;;6122659;28;80583;-65
2021/08/11 07:45:33;;;;;;;7.57;5.28;;;25.60;55.50;;;;;;6112106;28;83307;-64
2021/08/11 07:48:34;;;;;;;8.73;5.25;;;25.60;55.70;;;;;;6113186;28;80673;-64
2021/08/11 07:51:34;;;;;;;7.38;4.88;;;25.70;55.30;;;;;;6115029;28;80752;-64
2021/08/11 07:54:35;;;;;;;8.02;4.43;;;25.70;55.00;;;;;;6115300;28;81344;-64
2021/08/11 07:57:35;;;;;;;8.52;4.88;;;25.70;54.70;;;;;;6110670;28;80458;-66
2021/08/11 08:00:35;;;;;;;7.38;4.45;;;25.70;53.90;;;;;;6112844;28;80651;-65
2021/08/11 08:03:36;;;;;;;7.80;4.40;;;25.70;54.40;;;;;;6105007;28;80493;-64
2021/08/11 08:06:37;;;;;;;9.27;4.22;;;25.70;54.30;;;;;;6110934;28;80909;-65
2021/08/11 08:09:37;;;;;;;6.65;4.25;;;25.70;54.50;;;;;;6115393;28;80944;-64
2021/08/11 08:12:43;;;;;;;9.10;4.28;;;25.70;55.00;;;;;;6107507;28;81952;-66
2021/08/11 08:15:43;;;;;;;13.40;4.47;;;25.70;54.60;;;;;;6111216;28;81253;-64
2021/08/11 08:18:44;;;;;;;6.35;4.05;;;25.70;54.50;;;;;;6105998;28;80466;-64
2021/08/11 08:21:44;;;;;;;7.45;4.63;;;25.70;54.80;;;;;;6099949;28;81656;-64
2021/08/11 08:24:44;;;;;;;7.30;4.10;;;25.70;54.90;;;;;;6103475;28;80417;-63
2021/08/11 08:27:45;;;;;;;7.95;4.38;;;25.70;54.80;;;;;;6113572;28;80870;-63
2021/08/11 08:30:46;;;;;;;5.25;3.85;;;25.80;55.30;;;;;;6112290;28;80655;-63
2021/08/11 08:33:46;;;;;;;7.55;4.10;;;25.80;55.10;;;;;;6113353;28;80700;-64
2021/08/11 08:36:46;;;;;;;7.47;4.05;;;25.80;54.70;;;;;;6113183;28;81269;-63
2021/08/11 08:39:47;;;;;;;8.38;4.07;;;25.80;54.60;;;;;;6099493;28;80609;-63
2021/08/11 08:42:47;;;;;;;10.85;4.65;;;25.80;53.70;;;;;;6117200;28;81277;-62
2021/08/11 08:45:48;;;;;;;11.10;4.65;;;25.80;53.10;;;;;;6113350;28;80612;-63
2021/08/11 08:48:48;;;;;;;6.95;4.70;;;25.80;52.80;;;;;;6123668;28;80145;-63
2021/08/11 08:51:49;;;;;;;8.25;5.07;;;25.80;52.40;;;;;;6111499;28;80498;-63
2021/08/11 08:54:49;;;;;;;8.30;4.93;;;25.80;52.50;;;;;;6112920;28;80862;-63
2021/08/11 08:57:50;;;;;;;10.52;5.47;;;25.90;52.40;;;;;;6109646;28;85757;-64
2021/08/11 09:00:50;;;;;;;7.25;4.90;;;25.90;52.80;;;;;;6113074;28;80469;-64
2021/08/11 09:03:51;;;;;;;9.35;4.80;;;25.90;52.90;;;;;;6116290;28;80561;-65
2021/08/11 09:06:51;;;;;;;7.10;4.22;;;25.90;53.10;;;;;;6121025;28;81076;-65
2021/08/11 09:09:52;;;;;;;7.65;4.97;;;25.90;53.30;;;;;;6112051;28;80759;-64
2021/08/11 09:12:54;;;;;;;6.88;4.78;;;25.90;53.70;;;;;;6101582;28;81367;-65
2021/08/11 09:15:54;;;;;;;8.05;4.75;;;25.90;54.10;;;;;;6117713;28;81477;-65
2021/08/11 09:18:55;;;;;;;7.55;5.15;;;25.90;54.20;;;;;;6110507;28;80394;-64
2021/08/11 09:21:55;;;;;;;12.27;5.05;;;25.90;54.90;;;;;;6117846;28;81704;-65
2021/08/11 09:24:56;;;;;;;7.05;5.22;;;25.90;55.00;;;;;;6114590;28;81471;-65
2021/08/11 09:27:56;;;;;;;9.45;4.45;;;25.90;55.30;;;;;;6110961;28;80395;-65
2021/08/11 09:30:57;;;;;;;9.13;5.45;;;25.90;55.20;;;;;;6112233;28;80529;-65
2021/08/11 09:33:57;;;;;;;8.30;5.50;;;25.90;55.40;;;;;;6110070;28;80659;-64
2021/08/11 09:36:59;;;;;;;8.30;4.85;;;25.90;56.00;;;;;;6073881;28;83345;-63
2021/08/11 09:39:59;;;;;;;12.30;6.32;;;26.00;56.50;;;;;;6089392;28;81488;-64
2021/08/11 09:43:00;;;;;;;17.25;7.53;;;26.00;56.30;;;;;;6088395;28;80859;-65
2021/08/11 09:46:00;;;;;;;16.58;8.20;;;26.00;56.30;;;;;;6087349;28;80938;-65
2021/08/11 09:49:01;;;;;;;23.60;8.43;;;26.00;55.80;;;;;;6089285;28;80704;-65
2021/08/11 09:52:01;;;;;;;21.90;9.07;;;26.00;54.30;;;;;;6093124;28;80632;-65
2021/08/11 09:55:01;;;;;;;15.00;7.55;;;26.10;54.40;;;;;;6111385;28;81295;-65
2021/08/11 09:58:02;;;;;;;17.60;7.95;;;26.00;53.30;;;;;;6114701;28;81641;-65
2021/08/11 10:01:02;;;;;;;14.27;6.93;;;26.00;53.00;;;;;;6116525;28;82670;-65
2021/08/11 10:04:03;;;;;;;17.55;7.03;;;26.00;53.20;;;;;;6115116;28;80832;-64
2021/08/11 10:07:04;;;;;;;12.00;6.38;;;26.00;50.80;;;;;;6111324;28;80513;-65
2021/08/11 10:10:04;;;;;;;8.38;5.25;;;26.00;50.60;;;;;;6116062;28;82031;-65
2021/08/11 10:13:04;;;;;;;8.70;5.45;;;26.00;50.60;;;;;;6093646;28;80530;-64
2021/08/11 10:16:06;;;;;;;13.63;7.30;;;26.10;50.80;;;;;;6098907;28;83480;-65
2021/08/11 10:19:07;;;;;;;13.60;7.28;;;26.10;50.50;;;;;;6091519;28;82336;-64
2021/08/11 10:22:07;;;;;;;10.82;6.50;;;26.10;50.30;;;;;;6110295;28;81225;-65
2021/08/11 10:25:08;;;;;;;11.93;6.57;;;26.20;51.00;;;;;;6094278;28;83243;-64
2021/08/11 10:28:08;;;;;;;9.00;5.72;;;26.20;50.70;;;;;;6113547;28;80226;-64
2021/08/11 10:31:09;;;;;;;10.40;5.85;;;26.20;51.00;;;;;;6092835;28;80425;-66
2021/08/11 10:34:09;;;;;;;9.82;6.00;;;26.20;51.50;;;;;;6117707;28;80613;-65
2021/08/11 10:37:10;;;;;;;9.23;5.20;;;26.20;51.20;;;;;;6107694;28;81326;-65
2021/08/11 10:40:10;;;;;;;12.23;5.80;;;26.20;51.30;;;;;;6096257;28;83347;-65
2021/08/11 10:43:12;;;;;;;7.85;4.82;;;26.20;51.70;;;;;;6093121;28;80615;-65
2021/08/11 10:46:14;;;;;;;9.75;4.97;;;26.10;51.50;;;;;;6110627;28;80601;-65
2021/08/11 10:49:18;;;;;;;7.93;4.70;;;26.10;51.20;;;;;;6117316;28;81387;-64
2021/08/11 10:52:19;;;;;;;7.30;4.65;;;26.10;50.90;;;;;;6094851;28;83713;-66
2021/08/11 10:55:19;;;;;;;7.40;4.80;;;26.20;50.40;;;;;;6110786;28;80396;-66
2021/08/11 10:58:20;;;;;;;10.63;5.20;;;26.20;51.00;;;;;;6118058;28;80919;-65
2021/08/11 11:01:20;;;;;;;8.95;4.80;;;26.10;50.60;;;;;;6094278;28;80430;-66
2021/08/11 11:04:20;;;;;;;7.85;4.60;;;26.20;50.80;;;;;;6115993;28;81054;-68
2021/08/11 11:07:21;;;;;;;8.82;5.25;;;26.20;50.70;;;;;;6119656;28;80393;-68
2021/08/11 11:10:21;;;;;;;6.85;4.43;;;26.20;50.90;;;;;;6109722;28;81329;-68
2021/08/11 11:13:22;;;;;;;7.45;5.13;;;26.20;50.40;;;;;;6121318;28;80631;-68
2021/08/11 11:16:22;;;;;;;5.63;4.50;;;26.10;48.80;;;;;;6109436;28;80502;-66
2021/08/11 11:19:23;;;;;;;8.35;4.85;;;26.20;49.70;;;;;;6112347;28;81824;-66
2021/08/11 11:22:23;;;;;;;7.03;4.45;;;26.20;50.10;;;;;;6117292;28;80150;-66
2021/08/11 11:25:24;;;;;;;6.22;4.30;;;26.20;49.90;;;;;;6113703;28;81444;-67
2021/08/11 11:28:24;;;;;;;8.63;4.82;;;26.20;49.60;;;;;;6115876;28;80862;-67
2021/08/11 11:31:25;;;;;;;7.25;4.63;;;26.10;49.90;;;;;;6115384;28;84508;-67
2021/08/11 11:34:26;;;;;;;6.30;4.32;;;26.10;49.20;;;;;;6114217;28;80475;-68
2021/08/11 11:37:26;;;;;;;8.48;4.57;;;26.20;49.20;;;;;;6111035;28;82869;-68
2021/08/11 11:40:27;;;;;;;6.28;4.70;;;26.20;48.70;;;;;;6107139;28;80894;-68
2021/08/11 11:43:27;;;;;;;5.70;4.32;;;26.20;48.60;;;;;;6115449;28;81830;-67
2021/08/11 11:46:28;;;;;;;5.57;4.32;;;26.20;49.10;;;;;;6115031;28;80266;-67
2021/08/11 11:49:28;;;;;;;7.07;4.35;;;26.30;48.90;;;;;;6117921;28;80696;-67
2021/08/11 11:52:29;;;;;;;7.05;4.00;;;26.30;48.70;;;;;;6115446;28;80866;-66
2021/08/11 11:55:29;;;;;;;8.65;4.55;;;26.30;48.40;;;;;;6112280;28;81367;-67
2021/08/11 11:58:30;;;;;;;7.63;4.50;;;26.30;48.40;;;;;;6113097;28;80437;-67
2021/08/11 12:01:30;;;;;;;7.95;4.40;;;26.30;48.60;;;;;;6112161;28;80891;-67
2021/08/11 12:04:31;;;;;;;6.55;4.22;;;26.30;48.40;;;;;;6114374;28;81376;-66
2021/08/11 12:07:31;;;;;;;7.15;4.18;;;26.30;48.90;;;;;;6121651;28;80679;-66
2021/08/11 12:10:32;;;;;;;4.85;3.83;;;26.30;49.30;;;;;;6111932;28;80495;-66
2021/08/11 12:13:32;;;;;;;8.02;5.22;;;26.30;48.70;;;;;;6115386;28;80603;-65
2021/08/11 12:16:33;;;;;;;8.80;4.60;;;26.30;48.90;;;;;;6113681;28;80878;-66
2021/08/11 12:19:34;;;;;;;11.07;4.40;;;26.30;48.70;;;;;;6114310;28;81641;-66
2021/08/11 12:22:36;;;;;;;7.90;4.60;;;26.20;48.10;;;;;;6111535;28;87993;-66
2021/08/11 12:25:37;;;;;;;7.10;4.20;;;26.20;48.00;;;;;;6095915;28;82231;-66
2021/08/11 12:28:38;;;;;;;9.35;4.90;;;26.20;47.40;;;;;;6114321;28;81000;-66
2021/08/11 12:31:40;;;;;;;8.93;4.47;;;26.20;47.50;;;;;;6113192;28;80332;-66
2021/08/11 12:34:41;;;;;;;7.63;4.05;;;26.20;46.70;;;;;;6080132;28;81992;-65
2021/08/11 12:37:42;;;;;;;5.47;4.18;;;26.30;47.00;;;;;;6113567;28;80430;-66
2021/08/11 12:40:42;;;;;;;10.10;4.05;;;26.30;47.00;;;;;;6113462;28;80694;-67
2021/08/11 12:43:43;;;;;;;7.15;4.03;;;26.30;47.50;;;;;;6111788;28;80511;-66
2021/08/11 12:46:43;;;;;;;9.30;4.38;;;26.30;47.40;;;;;;6112390;28;80727;-66
2021/08/11 12:49:49;;;;;;;11.77;4.35;;;26.30;47.60;;;;;;6112794;28;80481;-66
2021/08/11 12:52:50;;;;;;;5.10;3.60;;;26.20;47.60;;;;;;6111554;28;85846;-66
2021/08/11 12:55:50;;;;;;;6.10;4.32;;;26.30;47.90;;;;;;6115351;28;80081;-66
2021/08/11 12:58:51;;;;;;;7.65;4.22;;;26.30;47.90;;;;;;6113032;28;80425;-66
2021/08/11 13:01:51;;;;;;;7.78;4.82;;;26.30;48.00;;;;;;6095217;28;83558;-67
2021/08/11 13:04:52;;;;;;;5.65;4.35;;;26.30;47.80;;;;;;6111102;28;81636;-66
2021/08/11 13:07:53;;;;;;;6.30;4.57;;;26.20;47.20;;;;;;6101741;28;80377;-66
2021/08/11 13:10:54;;;;;;;8.82;4.10;;;26.30;47.10;;;;;;6087653;28;80436;-66
2021/08/11 13:13:54;;;;;;;7.25;3.65;;;26.30;47.30;;;;;;6087061;28;83469;-65
2021/08/11 13:16:56;;;;;;;6.32;4.18;;;26.20;46.30;;;;;;6088831;28;80392;-66
2021/08/11 13:19:56;;;;;;;14.13;4.05;;;26.10;45.90;;;;;;6089577;28;81039;-65
2021/08/11 13:22:57;;;;;;;8.23;3.65;;;26.20;46.30;;;;;;6070273;28;83636;-65
2021/08/11 13:25:57;;;;;;;5.90;4.07;;;26.20;46.40;;;;;;6086345;28;81657;-65
2021/08/11 13:28:59;;;;;;;7.65;3.85;;;26.10;46.50;;;;;;6094955;28;80631;-64
2021/08/11 13:31:59;;;;;;;6.63;3.75;;;26.20;47.40;;;;;;6078731;28;81605;-66
2021/08/11 13:35:00;;;;;;;4.90;3.95;;;26.20;46.70;;;;;;6082397;28;80368;-65
2021/08/11 13:38:01;;;;;;;7.05;4.15;;;26.20;46.50;;;;;;6099838;28;81152;-67
2021/08/11 13:41:02;;;;;;;5.38;3.90;;;26.10;46.20;;;;;;6120673;28;80879;-66
2021/08/11 13:44:02;;;;;;;5.32;4.10;;;26.20;46.30;;;;;;6117674;28;80826;-67
2021/08/11 13:47:03;;;;;;;8.25;4.18;;;26.20;46.90;;;;;;6107716;28;80599;-67
2021/08/11 13:50:03;;;;;;;5.38;3.53;;;26.20;46.90;;;;;;6099996;28;81028;-68
2021/08/11 13:53:04;;;;;;;9.13;4.30;;;26.20;47.00;;;;;;6101292;28;80531;-67
2021/08/11 13:56:07;;;;;;;7.35;3.83;;;26.20;47.00;;;;;;6088652;28;81735;-67
2021/08/11 13:59:07;;;;;;;5.63;3.70;;;26.30;47.40;;;;;;6097566;28;80866;-67
2021/08/11 14:02:08;;;;;;;6.15;4.00;;;26.30;47.90;;;;;;6094307;28;82980;-65
2021/08/11 14:05:08;;;;;;;6.32;3.58;;;26.20;47.80;;;;;;6095091;28;80341;-65
2021/08/11 14:08:09;;;;;;;5.53;4.20;;;26.20;47.60;;;;;;6100417;28;81074;-66
2021/08/11 14:11:09;;;;;;;5.25;3.67;;;26.20;47.30;;;;;;6110391;28;80624;-67
2021/08/11 14:14:09;;;;;;;7.50;4.35;;;26.20;46.80;;;;;;6094696;28;80597;-67
2021/08/11 14:17:10;;;;;;;6.53;4.00;;;26.20;46.50;;;;;;6083340;28;80253;-68
2021/08/11 14:20:10;;;;;;;5.88;4.20;;;26.20;46.40;;;;;;6085304;28;80417;-68
2021/08/11 14:23:11;;;;;;;5.97;4.28;;;26.30;46.80;;;;;;6087443;28;80359;-67
2021/08/11 14:26:11;;;;;;;7.20;4.50;;;26.30;46.80;;;;;;6084262;28;83150;-67
2021/08/11 14:29:13;;;;;;;6.53;3.67;;;26.30;46.90;;;;;;6099723;28;80710;-67
2021/08/11 14:32:14;;;;;;;6.45;4.30;;;26.30;47.30;;;;;;6111121;28;80975;-67
2021/08/11 14:35:14;;;;;;;5.60;4.35;;;26.30;47.40;;;;;;6103417;28;80384;-70
2021/08/11 14:38:15;;;;;;;6.88;3.78;;;26.30;47.20;;;;;;6091886;28;80636;-67
2021/08/11 14:41:15;;;;;;;8.48;4.78;;;26.30;47.60;;;;;;6084960;28;80520;-66
2021/08/11 14:44:16;;;;;;;6.75;4.30;;;26.30;47.40;;;;;;6083959;28;80799;-67
2021/08/11 14:47:16;;;;;;;4.95;3.75;;;26.30;47.50;;;;;;6084825;28;81755;-67
2021/08/11 14:50:19;;;;;;;9.35;4.18;;;26.30;47.20;;;;;;6085900;28;81612;-67
2021/08/11 14:53:20;;;;;;;5.15;3.35;;;26.20;46.80;;;;;;6088681;28;80748;-67
2021/08/11 14:56:20;;;;;;;7.57;4.28;;;26.20;47.00;;;;;;6089077;28;80419;-67
2021/08/11 14:59:21;;;;;;;7.93;4.07;;;26.30;47.10;;;;;;6084076;28;81180;-68
2021/08/11 15:02:21;;;;;;;4.60;3.40;;;26.30;47.30;;;;;;6085302;28;80623;-68
2021/08/11 15:05:22;;;;;;;7.90;4.00;;;26.30;47.80;;;;;;6082218;28;81713;-69
2021/08/11 15:08:22;;;;;;;7.68;4.15;;;26.30;47.60;;;;;;6084626;28;80509;-69
2021/08/11 15:11:23;;;;;;;5.93;3.55;;;26.30;47.70;;;;;;6086901;28;80645;-67
2021/08/11 15:14:23;;;;;;;10.18;3.88;;;26.30;48.10;;;;;;6085117;28;80983;-67
2021/08/11 15:17:24;;;;;;;6.07;4.20;;;26.30;48.30;;;;;;6086749;28;81004;-67
2021/08/11 15:20:25;;;;;;;6.60;3.83;;;26.30;48.10;;;;;;6087994;28;80320;-67
2021/08/11 15:23:26;;;;;;;5.53;3.47;;;26.30;48.60;;;;;;6089754;28;80819;-68
2021/08/11 15:26:26;;;;;;;8.15;4.32;;;26.30;47.90;;;;;;6070503;28;80352;-67
2021/08/11 15:29:27;;;;;;;7.03;3.50;;;26.30;48.40;;;;;;6087308;28;80786;-67
2021/08/11 15:32:27;;;;;;;5.38;3.85;;;26.30;48.30;;;;;;6085971;28;80786;-68